Time;durP1;ratioP1;P1;durP2;ratioP2;P2;SDS_P1;SDS_P2;PMS_P1;PMS_P2;Temp;Humidity;BMP_temperature;BMP_pressure;BME280_temperature;BME280_humidity;BME280_pressure;Samples;Min_cycle;Max_cycle;Signal;HPM_P1;HPM_P2
2022/08/12 00:43:17;;;;;;;4.10;3.30;;;28.60;32.80;29.50;101078.00;;;;5028183;28;20703;-44
2022/08/12 00:48:27;;;;;;;4.25;3.60;;;28.50;32.80;29.50;101074.00;;;;5027638;28;20644;-43
2022/08/12 00:50:54;;;;;;;4.55;3.40;;;28.50;32.80;29.40;101077.00;;;;5043302;28;20163;-43
2022/08/12 00:53:20;;;;;;;4.35;3.75;;;28.50;32.80;29.40;101084.00;;;;5043207;28;20552;-44
2022/08/12 00:55:46;;;;;;;4.72;3.50;;;28.40;32.90;29.40;101084.00;;;;5043095;28;20176;-44
2022/08/12 00:58:17;;;;;;;3.90;3.50;;;28.40;32.90;29.40;101083.00;;;;5027867;28;20258;-44
2022/08/12 01:00:42;;;;;;;4.03;3.70;;;28.40;32.90;29.40;101077.00;;;;5042924;28;20214;-45
2022/08/12 01:03:08;;;;;;;5.95;3.83;;;28.50;32.90;29.40;101085.00;;;;5043242;28;20167;-45
2022/08/12 01:13:48;;;;;;;4.55;3.53;;;28.40;32.80;29.30;101077.00;;;;5040726;28;20190;-43
2022/08/12 01:16:16;;;;;;;3.97;3.38;;;28.30;32.90;29.20;101077.00;;;;5042827;28;20258;-43
2022/08/12 01:18:42;;;;;;;3.70;3.40;;;28.30;32.90;29.20;101081.00;;;;5027656;28;20671;-44
2022/08/12 01:21:26;;;;;;;3.72;3.42;;;28.30;33.00;29.20;101078.00;;;;5043178;28;20179;-44
2022/08/12 01:24:06;;;;;;;3.95;3.28;;;28.20;33.60;29.20;101077.00;;;;5027469;28;20175;-44
2022/08/12 01:26:33;;;;;;;3.72;3.40;;;28.30;32.90;29.20;101077.00;;;;5042820;28;20205;-44
2022/08/12 01:28:59;;;;;;;4.43;3.35;;;28.30;33.00;29.20;101081.00;;;;5027827;28;20185;-44
2022/08/12 01:31:27;;;;;;;3.65;3.25;;;28.30;33.00;29.20;101080.00;;;;5028910;28;20171;-44
2022/08/12 01:34:08;;;;;;;3.95;3.15;;;28.20;33.00;29.20;101080.00;;;;5027640;28;20442;-44
2022/08/12 01:36:58;;;;;;;3.67;3.38;;;28.20;33.00;29.20;101083.00;;;;5028627;28;20186;-44
2022/08/12 01:39:32;;;;;;;4.28;3.50;;;28.20;32.90;29.20;101080.00;;;;5041853;28;20194;-44
2022/08/12 01:42:06;;;;;;;3.33;3.03;;;28.20;33.10;29.10;101087.00;;;;5042607;28;20802;-44
2022/08/12 01:44:31;;;;;;;3.22;2.92;;;28.20;33.10;29.10;101080.00;;;;5041487;28;20163;-44
2022/08/12 01:47:31;;;;;;;4.13;3.45;;;28.20;33.10;28.90;101079.00;;;;5048943;28;20194;-44
2022/08/12 01:50:06;;;;;;;7.18;3.42;;;28.10;33.10;29.10;101077.00;;;;5031737;28;20547;-44
2022/08/12 01:52:52;;;;;;;5.63;3.58;;;28.20;33.20;29.10;101071.00;;;;5026877;28;20182;-44
2022/08/12 01:55:32;;;;;;;3.65;3.30;;;28.10;33.10;29.10;101072.00;;;;5026548;28;20206;-44
2022/08/12 01:58:00;;;;;;;3.85;3.20;;;28.10;33.00;29.00;101066.00;;;;5044434;28;20191;-44
2022/08/12 02:00:47;;;;;;;5.60;3.38;;;28.10;33.00;29.00;101072.00;;;;5030734;28;20230;-43
2022/08/12 02:12:46;;;;;;;4.75;3.42;;;28.10;33.30;28.90;101070.00;;;;5037939;28;20174;-44
2022/08/12 02:15:52;;;;;;;3.40;3.10;;;28.10;33.20;28.90;101079.00;;;;5040316;28;20233;-44
2022/08/12 02:19:11;;;;;;;6.57;3.40;;;28.10;33.30;28.90;101071.00;;;;5021169;28;20175;-44
2022/08/12 02:21:53;;;;;;;5.57;3.20;;;28.10;33.40;28.90;101069.00;;;;5025396;28;20794;-44
2022/08/12 02:24:19;;;;;;;3.53;3.22;;;28.10;33.40;28.90;101077.00;;;;5039944;28;20239;-44
2022/08/12 02:26:49;;;;;;;4.22;3.40;;;28.10;33.40;28.90;101082.00;;;;5041553;28;20916;-44
2022/08/12 02:29:14;;;;;;;3.70;3.40;;;28.10;34.30;28.90;101085.00;;;;5026153;28;20185;-44
2022/08/12 02:31:44;;;;;;;3.90;3.50;;;28.10;35.00;28.90;101087.00;;;;5026149;28;20171;-43
2022/08/12 02:34:11;;;;;;;4.80;3.60;;;28.00;35.50;28.90;101092.00;;;;5026258;28;20203;-44
2022/08/12 02:36:37;;;;;;;4.03;3.72;;;27.90;35.60;28.80;101099.00;;;;5041326;28;20210;-43
2022/08/12 02:39:04;;;;;;;4.75;3.63;;;27.90;35.80;28.80;101088.00;;;;5040864;28;20254;-43
2022/08/12 02:41:30;;;;;;;4.05;3.58;;;27.90;35.90;28.80;101107.00;;;;5041744;28;20171;-43
2022/08/12 02:43:59;;;;;;;4.00;3.70;;;27.90;36.00;28.80;101105.00;;;;5041646;28;20541;-45
2022/08/12 02:46:31;;;;;;;4.05;3.75;;;27.90;36.00;28.80;101099.00;;;;5025392;28;20273;-44
2022/08/12 02:49:09;;;;;;;4.03;3.60;;;27.90;36.10;28.80;101101.00;;;;5025905;28;20185;-44
2022/08/12 02:51:39;;;;;;;3.70;3.40;;;28.00;36.30;28.80;101090.00;;;;5025800;28;20277;-44
2022/08/12 02:54:06;;;;;;;4.00;3.67;;;28.00;36.30;28.80;101094.00;;;;5026020;28;20254;-44
2022/08/12 02:56:39;;;;;;;4.15;3.47;;;28.00;36.30;28.80;101099.00;;;;5025673;28;20206;-44
2022/08/12 02:59:10;;;;;;;4.13;3.72;;;28.00;36.40;28.80;101101.00;;;;5025849;28;20266;-44
2022/08/12 03:01:46;;;;;;;3.85;3.50;;;27.90;36.40;28.80;101101.00;;;;5025740;28;20159;-44
2022/08/12 03:04:18;;;;;;;3.60;3.30;;;27.90;36.50;28.80;101092.00;;;;5040399;28;20166;-44
2022/08/12 03:06:50;;;;;;;3.42;3.20;;;28.00;36.60;28.80;101079.00;;;;5040702;28;20250;-45
2022/08/12 03:09:15;;;;;;;3.78;3.47;;;28.00;36.60;28.80;101080.00;;;;5040868;28;20806;-44
2022/08/12 03:11:58;;;;;;;3.70;3.40;;;28.00;36.30;28.80;101087.00;;;;5042593;28;20250;-44
2022/08/12 03:14:26;;;;;;;3.75;3.45;;;28.00;36.60;28.80;101089.00;;;;5029977;28;20584;-44
2022/08/12 03:17:21;;;;;;;3.80;3.50;;;27.90;36.80;28.80;101094.00;;;;5044548;28;20191;-44
2022/08/12 03:19:46;;;;;;;3.90;3.60;;;27.90;37.10;28.70;101092.00;;;;5047652;28;20504;-45
2022/08/12 03:22:13;;;;;;;3.95;3.40;;;27.90;37.20;28.70;101086.00;;;;5031120;28;20171;-44
2022/08/12 03:24:44;;;;;;;6.10;3.78;;;27.90;37.20;28.70;101082.00;;;;5029646;28;20202;-44
2022/08/12 03:27:12;;;;;;;6.53;3.70;;;27.90;37.50;28.70;101088.00;;;;5029389;28;20274;-44
2022/08/12 03:29:38;;;;;;;6.30;3.60;;;27.90;37.90;28.70;101099.00;;;;5029990;28;20170;-44
2022/08/12 03:32:04;;;;;;;5.32;3.58;;;27.90;38.00;28.70;101032.00;;;;5039883;28;20178;-44
2022/08/12 03:34:34;;;;;;;4.40;4.00;;;27.80;38.00;28.70;101099.00;;;;5033496;28;20286;-44
2022/08/12 03:37:03;;;;;;;4.70;4.28;;;27.80;37.90;28.70;101087.00;;;;5043773;28;20738;-44
2022/08/12 03:42:34;;;;;;;6.22;5.70;;;27.80;38.70;28.60;101092.00;;;;5029694;28;20645;-44
2022/08/12 04:01:56;;;;;;;3.97;3.70;;;27.60;38.50;28.40;101099.00;;;;5008565;28;20219;-43
2022/08/12 04:04:33;;;;;;;4.53;4.22;;;27.60;38.40;28.40;101100.00;;;;5008787;28;20179;-43
2022/08/12 04:07:07;;;;;;;6.88;3.95;;;27.70;38.70;28.40;101099.00;;;;5008752;28;20206;-43
2022/08/12 04:09:33;;;;;;;4.32;3.90;;;27.60;38.60;28.40;101103.00;;;;5023972;28;20230;-43
2022/08/12 04:14:43;;;;;;;4.30;3.70;;;27.70;38.60;28.40;101099.00;;;;5008098;28;20341;-45
2022/08/12 04:17:10;;;;;;;5.07;3.75;;;27.70;38.50;28.40;101095.00;;;;5008079;28;20199;-42
2022/08/12 04:19:36;;;;;;;4.28;3.90;;;27.60;38.50;28.40;101093.00;;;;5023634;28;20164;-43
2022/08/12 04:22:02;;;;;;;4.00;3.70;;;27.70;38.50;28.40;101092.00;;;;5007666;28;20255;-42
2022/08/12 04:24:28;;;;;;;5.72;3.85;;;27.60;38.50;28.40;101089.00;;;;5007627;28;20857;-43
2022/08/12 04:26:54;;;;;;;4.10;3.70;;;27.60;39.20;28.40;101090.00;;;;5007477;28;20345;-42
2022/08/12 04:29:21;;;;;;;5.40;3.90;;;27.70;38.60;28.40;101087.00;;;;5008119;28;20794;-43
2022/08/12 04:31:48;;;;;;;4.40;4.00;;;27.60;38.70;28.20;101090.00;;;;5008479;28;20179;-44
2022/08/12 04:34:14;;;;;;;4.28;3.80;;;27.60;38.90;28.40;101092.00;;;;5024164;28;20193;-45
2022/08/12 04:36:40;;;;;;;4.05;3.70;;;27.60;38.80;28.40;101093.00;;;;5009216;28;20188;-44
2022/08/12 04:39:07;;;;;;;4.85;4.05;;;27.60;38.80;28.30;101094.00;;;;5009760;28;20176;-44
2022/08/12 04:41:34;;;;;;;7.00;4.20;;;27.50;39.10;28.30;101092.00;;;;5009636;28;20225;-44
2022/08/12 04:44:00;;;;;;;7.90;3.75;;;27.60;39.30;28.30;101089.00;;;;5023133;28;20179;-44
2022/08/12 04:46:25;;;;;;;6.47;4.00;;;27.60;39.30;28.30;101085.00;;;;5007876;28;20665;-44
2022/08/12 04:48:52;;;;;;;4.32;3.72;;;27.60;39.10;28.30;101086.00;;;;5007705;28;20191;-43
2022/08/12 04:51:19;;;;;;;4.65;3.70;;;27.60;39.00;28.30;101081.00;;;;5008233;28;20164;-42
2022/08/12 04:53:46;;;;;;;6.13;4.18;;;27.60;39.10;28.30;101086.00;;;;5008048;28;20230;-43
2022/08/12 04:56:12;;;;;;;6.15;3.85;;;27.60;39.00;28.30;101086.00;;;;5008185;28;20330;-44
2022/08/12 04:58:39;;;;;;;3.80;3.50;;;27.60;39.10;28.30;101078.00;;;;5005508;28;20195;-43
2022/08/12 05:01:05;;;;;;;5.55;3.80;;;27.60;39.10;28.30;101088.00;;;;4952051;28;20176;-43
2022/08/12 05:03:31;;;;;;;8.52;3.75;;;27.60;39.20;28.30;101085.00;;;;5007610;28;20306;-45
2022/08/12 05:05:57;;;;;;;5.00;3.65;;;27.60;39.60;28.20;101083.00;;;;5016646;28;20251;-43
2022/08/12 05:08:23;;;;;;;8.25;4.13;;;27.60;39.80;28.20;101080.00;;;;5027256;28;20701;-44
2022/08/12 05:10:49;;;;;;;10.02;3.83;;;27.70;40.20;28.20;101085.00;;;;5026776;28;20175;-42
2022/08/12 05:13:19;;;;;;;6.45;3.83;;;27.60;40.10;28.20;101082.00;;;;5027001;28;20171;-42
2022/08/12 05:15:45;;;;;;;7.65;4.07;;;27.60;40.20;28.20;101087.00;;;;5025516;28;20194;-45
2022/08/12 05:18:12;;;;;;;4.00;3.60;;;27.60;40.20;28.20;101090.00;;;;5015361;28;20210;-43
2022/08/12 05:20:38;;;;;;;5.57;4.18;;;27.60;40.10;28.10;101088.00;;;;5007356;28;20203;-42
2022/08/12 05:23:07;;;;;;;6.63;3.90;;;27.60;40.20;28.10;101091.00;;;;5022467;28;20413;-44
2022/08/12 05:25:33;;;;;;;4.70;3.70;;;27.60;40.10;28.10;101092.00;;;;5008189;28;20179;-42
2022/08/12 05:27:59;;;;;;;5.63;3.90;;;27.60;40.10;28.10;101076.00;;;;5027007;28;20187;-42
2022/08/12 05:30:29;;;;;;;4.70;3.53;;;27.60;40.10;28.10;101078.00;;;;5027238;28;20171;-43
2022/08/12 05:32:56;;;;;;;5.03;3.60;;;27.50;40.10;28.10;101078.00;;;;5027485;28;20183;-42
2022/08/12 05:35:22;;;;;;;6.53;3.50;;;27.50;40.10;28.10;101079.00;;;;5026077;28;20657;-44
2022/08/12 05:37:48;;;;;;;6.40;3.50;;;27.50;40.10;28.10;101089.00;;;;5026808;28;20238;-43
2022/08/12 05:40:13;;;;;;;4.28;3.75;;;27.50;40.00;28.10;101087.00;;;;5027311;28;20363;-42
2022/08/12 05:42:39;;;;;;;4.68;3.70;;;27.50;39.90;28.10;101099.00;;;;5026725;28;20515;-43
2022/08/12 05:45:06;;;;;;;3.60;3.30;;;27.50;39.90;28.10;101095.00;;;;5026675;28;20183;-42
2022/08/12 05:47:32;;;;;;;3.55;3.25;;;27.50;39.90;28.10;101093.00;;;;5027047;28;20203;-43
2022/08/12 05:49:58;;;;;;;3.95;3.50;;;27.50;39.80;28.00;101086.00;;;;5027252;28;20432;-43
2022/08/12 05:52:24;;;;;;;3.80;3.40;;;27.50;39.80;28.00;101088.00;;;;5025453;28;20210;-43
2022/08/12 05:54:50;;;;;;;4.55;3.50;;;27.50;39.80;28.00;101103.00;;;;5025144;28;20282;-43
2022/08/12 05:57:16;;;;;;;3.53;3.20;;;27.50;39.70;28.00;101096.00;;;;5024927;28;20328;-43
2022/08/12 05:59:42;;;;;;;3.78;3.30;;;27.50;39.80;28.00;101096.00;;;;5026720;28;20170;-43
2022/08/12 06:02:10;;;;;;;3.75;3.40;;;27.50;39.80;28.00;101099.00;;;;5026737;28;20445;-42
2022/08/12 06:04:37;;;;;;;3.72;3.30;;;27.40;39.70;27.90;101104.00;;;;5026377;28;20657;-44
2022/08/12 06:07:06;;;;;;;3.70;3.38;;;27.40;39.60;28.00;101100.00;;;;5026054;28;20199;-43
2022/08/12 06:09:32;;;;;;;3.80;3.50;;;27.40;39.60;27.90;101104.00;;;;5025273;28;20175;-43
2022/08/12 06:11:58;;;;;;;3.80;3.50;;;27.40;39.60;27.90;101099.00;;;;5026260;28;20665;-43
2022/08/12 06:14:23;;;;;;;4.85;3.35;;;27.30;39.50;27.90;101110.00;;;;5025022;28;20565;-42
2022/08/12 06:16:50;;;;;;;3.70;3.40;;;27.40;39.60;27.90;101106.00;;;;5024515;28;20230;-43
2022/08/12 06:19:17;;;;;;;3.50;3.20;;;27.30;39.50;27.90;101107.00;;;;5026098;28;20204;-43
2022/08/12 06:21:47;;;;;;;3.70;3.40;;;27.30;39.50;27.90;101117.00;;;;5026449;28;20201;-43
2022/08/12 06:24:13;;;;;;;3.92;3.38;;;27.30;39.60;27.90;101109.00;;;;5026398;28;20171;-41
2022/08/12 06:26:38;;;;;;;3.90;3.40;;;27.30;39.60;27.80;101103.00;;;;5026154;28;20285;-43
2022/08/12 06:29:04;;;;;;;3.63;3.33;;;27.30;39.70;27.80;101108.00;;;;5025919;28;20230;-43
2022/08/12 06:31:30;;;;;;;3.83;3.53;;;27.20;39.60;27.80;101099.00;;;;5026015;28;20221;-43
2022/08/12 06:33:56;;;;;;;3.35;3.13;;;27.20;39.60;27.80;101110.00;;;;5026187;28;20198;-43
2022/08/12 06:36:23;;;;;;;3.90;3.35;;;27.20;39.60;27.80;101112.00;;;;5026046;28;20214;-44
2022/08/12 06:38:49;;;;;;;3.85;3.25;;;27.20;39.60;27.70;101103.00;;;;5025497;28;20183;-44
2022/08/12 06:44:00;;;;;;;3.75;3.38;;;27.10;39.50;27.80;101100.00;;;;5025800;28;20161;-43
2022/08/12 06:46:27;;;;;;;3.33;3.10;;;27.20;39.60;27.80;101101.00;;;;5025790;28;20277;-43
2022/08/12 06:48:57;;;;;;;3.72;3.42;;;27.10;39.60;27.80;101110.00;;;;5025772;28;20736;-42
2022/08/12 06:51:24;;;;;;;3.28;2.97;;;27.10;39.60;27.80;101107.00;;;;5026016;28;20163;-43
2022/08/12 06:53:50;;;;;;;3.55;3.25;;;27.20;39.60;27.80;101114.00;;;;5025777;28;20661;-43
2022/08/12 06:56:16;;;;;;;3.60;3.30;;;27.20;39.60;27.80;101113.00;;;;5025576;28;20195;-41
2022/08/12 06:58:43;;;;;;;3.60;3.30;;;27.20;39.70;27.80;101110.00;;;;5025357;28;20195;-43
2022/08/12 07:01:09;;;;;;;3.58;3.28;;;27.20;39.70;27.80;101102.00;;;;5025865;28;20270;-42
2022/08/12 07:03:35;;;;;;;3.50;3.10;;;27.20;39.60;27.80;101112.00;;;;5025523;28;20177;-42
2022/08/12 07:06:03;;;;;;;3.88;3.30;;;27.20;39.80;27.80;101109.00;;;;5025689;28;20619;-43
2022/08/12 07:08:31;;;;;;;4.03;3.45;;;27.20;39.70;27.80;101116.00;;;;5025359;28;20177;-41
2022/08/12 07:11:02;;;;;;;3.70;3.40;;;27.20;39.70;27.80;101114.00;;;;5025868;28;20174;-42
2022/08/12 07:13:37;;;;;;;3.38;3.08;;;27.20;39.70;27.80;101111.00;;;;5028749;28;20147;-43
2022/08/12 07:16:04;;;;;;;3.33;3.03;;;27.20;39.70;27.80;101114.00;;;;5036046;28;20556;-43
2022/08/12 07:18:31;;;;;;;3.22;2.92;;;27.30;39.80;27.80;101113.00;;;;5034233;28;20175;-42
2022/08/12 07:21:00;;;;;;;3.00;2.80;;;27.20;39.70;27.80;101118.00;;;;5027069;28;20741;-43
2022/08/12 07:23:26;;;;;;;3.00;2.80;;;27.20;39.80;27.80;101111.00;;;;5025554;28;20690;-43
2022/08/12 07:25:52;;;;;;;3.40;3.20;;;27.20;39.70;27.80;101118.00;;;;5026046;28;20599;-45
2022/08/12 07:28:23;;;;;;;3.42;3.10;;;27.30;39.80;27.80;101117.00;;;;5025013;28;20167;-44
2022/08/12 07:30:50;;;;;;;3.10;2.90;;;27.30;39.80;27.80;101122.00;;;;5025181;28;20152;-42
2022/08/12 07:33:18;;;;;;;3.20;3.00;;;27.30;39.90;27.80;101116.00;;;;5025377;28;20190;-42
2022/08/12 07:35:44;;;;;;;3.05;2.80;;;27.30;39.80;27.80;101122.00;;;;5025411;28;20189;-44
2022/08/12 07:38:32;;;;;;;3.45;2.97;;;27.30;39.90;27.80;101127.00;;;;5025324;28;20179;-41
2022/08/12 07:41:09;;;;;;;3.05;2.85;;;27.30;39.90;27.80;101130.00;;;;5025630;28;20174;-44
2022/08/12 07:43:40;;;;;;;3.40;3.10;;;27.30;39.90;27.80;101129.00;;;;5025477;28;20169;-44
2022/08/12 07:46:10;;;;;;;3.15;2.95;;;27.30;39.90;27.80;101123.00;;;;5024904;28;20584;-44
2022/08/12 07:48:44;;;;;;;2.90;2.70;;;27.30;40.00;27.80;101117.00;;;;5025202;28;20660;-44
2022/08/12 07:51:10;;;;;;;2.95;2.75;;;27.30;39.90;27.80;101120.00;;;;5025534;28;20717;-44
2022/08/12 07:53:37;;;;;;;2.90;2.70;;;27.30;40.60;27.90;101119.00;;;;5025312;28;20262;-42
2022/08/12 07:56:04;;;;;;;3.10;2.90;;;27.40;40.00;27.90;101140.00;;;;5025089;28;20532;-43
2022/08/12 07:58:31;;;;;;;2.85;2.65;;;27.40;40.10;27.90;101135.00;;;;5025719;28;20464;-43
2022/08/12 08:00:59;;;;;;;3.20;3.00;;;27.40;40.10;27.90;101133.00;;;;5028993;28;20290;-43
2022/08/12 08:03:26;;;;;;;3.00;2.80;;;27.40;40.20;27.90;101128.00;;;;5028929;28;20266;-44
2022/08/12 08:05:52;;;;;;;2.80;2.60;;;27.40;40.10;28.00;101140.00;;;;5027491;28;20664;-44
2022/08/12 08:08:21;;;;;;;3.28;3.00;;;27.40;40.20;28.00;101138.00;;;;5028540;28;20163;-41
2022/08/12 08:10:48;;;;;;;2.95;2.75;;;27.40;40.10;28.00;101129.00;;;;5028836;28;20163;-43
2022/08/12 08:13:14;;;;;;;3.20;2.90;;;27.40;40.20;28.00;101132.00;;;;5028685;28;20175;-42
2022/08/12 08:15:40;;;;;;;2.85;2.58;;;27.40;40.20;28.00;101132.00;;;;5028547;28;20694;-42
2022/08/12 08:18:11;;;;;;;3.10;2.83;;;27.40;40.30;28.00;101135.00;;;;5028292;28;20175;-42
2022/08/12 08:20:40;;;;;;;2.90;2.70;;;27.50;40.40;28.00;101136.00;;;;5028674;28;20540;-43
2022/08/12 08:23:15;;;;;;;2.97;2.78;;;27.50;40.30;28.10;101135.00;;;;5028730;28;20171;-43
2022/08/12 08:25:41;;;;;;;2.70;2.50;;;27.50;40.40;28.10;101131.00;;;;5027075;28;20649;-43
2022/08/12 08:28:12;;;;;;;3.03;2.78;;;27.50;40.50;28.10;101139.00;;;;5027955;28;20324;-42
2022/08/12 08:30:42;;;;;;;2.88;2.67;;;27.50;40.50;28.10;101146.00;;;;5028214;28;20557;-42
2022/08/12 08:33:09;;;;;;;3.00;2.80;;;27.50;40.60;28.10;101143.00;;;;5027671;28;20171;-43
2022/08/12 08:35:36;;;;;;;2.78;2.58;;;27.40;40.50;28.10;101136.00;;;;5027877;28;20897;-44
2022/08/12 08:38:13;;;;;;;2.60;2.40;;;27.50;40.60;28.10;101137.00;;;;5028789;28;20278;-43
2022/08/12 08:43:27;;;;;;;2.70;2.50;;;27.50;40.70;28.10;101146.00;;;;5028134;28;20636;-44
2022/08/12 08:45:55;;;;;;;3.00;2.80;;;27.50;40.80;28.10;101137.00;;;;5022753;28;20761;-44
2022/08/12 08:48:21;;;;;;;2.90;2.70;;;27.50;40.70;28.10;101133.00;;;;5021669;28;20175;-43
2022/08/12 08:50:47;;;;;;;2.70;2.50;;;27.50;40.80;28.10;101126.00;;;;5028163;28;20772;-43
2022/08/12 08:53:13;;;;;;;2.70;2.50;;;27.50;40.80;28.10;101132.00;;;;5027803;28;20210;-42
2022/08/12 08:55:41;;;;;;;2.75;2.55;;;27.50;40.80;28.10;101125.00;;;;5027782;28;20692;-42
2022/08/12 08:58:07;;;;;;;2.70;2.50;;;27.50;40.90;28.10;101111.00;;;;5026718;28;20312;-42
2022/08/12 09:00:33;;;;;;;2.95;2.70;;;27.50;40.60;28.10;101125.00;;;;5026656;28;20255;-42
2022/08/12 09:03:03;;;;;;;3.60;2.67;;;27.40;38.50;28.10;101126.00;;;;4962419;28;20167;-42
2022/08/12 09:05:29;;;;;;;3.00;2.80;;;27.50;38.70;28.10;101134.00;;;;5026454;28;20726;-42
2022/08/12 09:07:55;;;;;;;3.45;2.70;;;27.40;38.90;28.10;101128.00;;;;5027343;28;20203;-42
2022/08/12 09:10:21;;;;;;;4.40;2.60;;;27.50;36.90;28.10;101128.00;;;;5009839;28;20184;-42
2022/08/12 09:15:31;;;;;;;6.50;2.92;;;27.50;37.70;28.00;101123.00;;;;5007424;28;20834;-41
2022/08/12 09:17:58;;;;;;;3.08;2.80;;;27.50;38.20;28.00;101122.00;;;;5007452;28;20279;-41
2022/08/12 09:20:26;;;;;;;3.83;2.70;;;27.50;37.80;28.10;101120.00;;;;5007414;28;20156;-42
2022/08/12 09:22:53;;;;;;;4.63;2.40;;;27.60;37.80;28.10;101109.00;;;;5008692;28;20176;-41
2022/08/12 09:25:26;;;;;;;5.07;2.63;;;27.60;38.40;28.10;101120.00;;;;5010443;28;20218;-42
2022/08/12 09:27:53;;;;;;;3.10;2.80;;;27.60;37.50;28.10;101119.00;;;;5010040;28;20206;-43
2022/08/12 09:30:20;;;;;;;3.60;2.67;;;27.60;36.90;28.10;101114.00;;;;5010241;28;20786;-41
2022/08/12 09:32:49;;;;;;;5.15;2.72;;;27.60;36.40;28.10;101116.00;;;;5010020;28;20176;-41
2022/08/12 09:35:22;;;;;;;3.60;2.90;;;27.60;36.40;28.10;101111.00;;;;5010045;28;20198;-43
2022/08/12 09:37:49;;;;;;;3.28;2.60;;;27.70;38.30;28.10;101112.00;;;;5010154;28;20215;-42
2022/08/12 09:40:16;;;;;;;3.13;2.80;;;27.60;36.60;28.10;101112.00;;;;5010131;28;20179;-48
2022/08/12 09:45:27;;;;;;;9.48;3.60;;;27.70;37.20;28.10;101102.00;;;;5010522;28;20195;-42
2022/08/12 09:47:52;;;;;;;11.23;3.92;;;27.70;37.00;28.20;101103.00;;;;5010093;28;20200;-43
2022/08/12 09:50:18;;;;;;;5.85;2.97;;;27.70;36.70;28.20;101091.00;;;;5008780;28;20159;-39
2022/08/12 09:52:45;;;;;;;8.68;3.20;;;27.70;36.80;28.20;101083.00;;;;5009594;28;20221;-42
2022/08/12 09:55:18;;;;;;;7.32;2.80;;;27.70;35.80;28.20;101087.00;;;;5009792;28;20672;-41
2022/08/12 09:57:44;;;;;;;3.75;2.90;;;27.80;36.20;28.20;101094.00;;;;5016042;28;20789;-41
2022/08/12 10:00:11;;;;;;;8.18;3.20;;;27.80;36.00;28.20;101090.00;;;;5029854;28;20539;-42
2022/08/12 10:02:38;;;;;;;8.10;2.85;;;27.80;36.90;28.30;101087.00;;;;4951093;28;22457;-42
2022/08/12 10:05:05;;;;;;;3.95;2.90;;;27.80;37.00;28.30;101088.00;;;;5029051;28;20186;-42
2022/08/12 10:07:30;;;;;;;4.90;2.75;;;27.90;37.10;28.30;101093.00;;;;5028920;28;20190;-41
2022/08/12 10:09:56;;;;;;;4.78;2.78;;;27.90;36.60;28.30;101084.00;;;;5029658;28;20553;-43
2022/08/12 10:15:07;;;;;;;3.22;2.70;;;27.90;35.00;28.30;101074.00;;;;5028802;28;20264;-44
2022/08/12 10:17:32;;;;;;;3.90;2.90;;;27.90;34.20;28.40;101080.00;;;;5020508;28;20694;-42
2022/08/12 10:19:58;;;;;;;3.88;2.90;;;27.90;34.20;28.40;101072.00;;;;5009412;28;20182;-43
2022/08/12 10:22:24;;;;;;;8.55;3.10;;;27.90;34.30;28.40;101067.00;;;;5025248;28;20209;-42
2022/08/12 10:30:19;;;;;;;3.95;2.63;;;28.00;34.70;28.50;101056.00;;;;5028980;28;20241;-42
2022/08/12 10:32:58;;;;;;;3.85;3.00;;;28.00;34.80;28.50;101046.00;;;;5029063;28;20182;-41
2022/08/12 10:35:30;;;;;;;6.20;3.00;;;28.10;34.40;28.50;101046.00;;;;5028694;28;20305;-42
2022/08/12 10:38:00;;;;;;;4.03;3.10;;;28.10;35.00;28.50;101039.00;;;;5028559;28;20215;-42
2022/08/12 10:40:28;;;;;;;3.78;2.70;;;28.10;34.60;28.50;101031.00;;;;5025347;28;20928;-43
2022/08/12 10:45:38;;;;;;;2.85;2.65;;;28.10;34.20;28.60;101035.00;;;;5028471;28;20268;-42
2022/08/12 10:48:04;;;;;;;3.22;2.83;;;28.20;34.40;28.60;101034.00;;;;5028184;28;20895;-43
2022/08/12 10:50:30;;;;;;;4.68;2.63;;;28.20;34.90;28.60;101018.00;;;;5028179;28;20179;-42
2022/08/12 10:52:56;;;;;;;3.20;2.90;;;28.20;34.00;28.70;101032.00;;;;5027805;28;20202;-42
2022/08/12 10:55:22;;;;;;;4.50;2.90;;;28.20;34.40;28.70;101028.00;;;;5028447;28;20229;-42
2022/08/12 10:57:48;;;;;;;3.53;2.80;;;28.20;33.40;28.70;101026.00;;;;5027777;28;20194;-43
2022/08/12 11:00:14;;;;;;;3.78;2.58;;;28.20;33.90;28.70;101022.00;;;;5028148;28;20174;-42
2022/08/12 11:02:53;;;;;;;3.00;2.60;;;28.20;33.50;28.70;101028.00;;;;4981621;28;20181;-40
2022/08/12 11:05:19;;;;;;;2.70;2.50;;;28.30;34.30;28.70;101008.00;;;;5011100;28;20175;-40
2022/08/12 11:07:47;;;;;;;4.70;2.50;;;28.40;34.30;28.80;101006.00;;;;5007878;28;20215;-43
2022/08/12 11:10:13;;;;;;;4.63;2.78;;;28.40;35.10;28.80;101005.00;;;;5007968;28;20676;-42
2022/08/12 11:12:45;;;;;;;2.65;2.45;;;28.40;35.40;28.80;100996.00;;;;5023093;28;20202;-42
2022/08/12 11:15:11;;;;;;;4.20;2.72;;;28.40;34.40;28.80;101002.00;;;;5008188;28;20562;-41
2022/08/12 11:17:37;;;;;;;2.75;2.55;;;28.40;34.00;28.90;100991.00;;;;5008267;28;20187;-43
2022/08/12 11:20:03;;;;;;;3.20;2.90;;;28.50;34.80;28.90;100990.00;;;;5008055;28;20171;-44
2022/08/12 11:22:29;;;;;;;3.67;2.65;;;28.40;35.70;28.90;100982.00;;;;5008824;28;20200;-44
2022/08/12 11:24:55;;;;;;;3.13;2.72;;;28.50;36.30;29.00;100985.00;;;;5008432;28;20610;-43
2022/08/12 11:27:20;;;;;;;3.03;2.60;;;28.50;36.60;29.00;100972.00;;;;5011540;28;20662;-43
2022/08/12 11:29:46;;;;;;;4.57;2.55;;;28.50;37.30;29.00;100920.00;;;;5010465;28;20168;-43
2022/08/12 11:32:12;;;;;;;3.75;2.60;;;28.50;37.60;29.10;100982.00;;;;5009784;28;20155;-43
2022/08/12 11:34:39;;;;;;;3.13;2.83;;;28.50;37.80;29.10;100975.00;;;;5012243;28;20191;-43
2022/08/12 11:37:06;;;;;;;2.78;2.58;;;28.60;38.20;29.10;100975.00;;;;5012275;28;20201;-43
2022/08/12 11:39:32;;;;;;;3.50;2.70;;;28.60;38.50;29.10;100971.00;;;;5011810;28;20172;-43
2022/08/12 11:41:59;;;;;;;2.70;2.50;;;28.60;38.40;29.20;100970.00;;;;5026647;28;20207;-47
2022/08/12 11:44:25;;;;;;;3.17;2.78;;;28.70;38.50;29.20;100972.00;;;;5011739;28;20271;-42
2022/08/12 11:46:53;;;;;;;5.55;2.55;;;28.70;38.90;29.20;100967.00;;;;5011468;28;20725;-43
2022/08/12 11:49:20;;;;;;;3.28;3.00;;;28.70;39.90;29.30;100961.00;;;;5011696;28;20199;-43
2022/08/12 11:51:46;;;;;;;2.95;2.75;;;28.70;40.10;29.30;100956.00;;;;5011880;28;20179;-44
2022/08/12 11:54:12;;;;;;;4.05;2.47;;;28.70;40.30;29.30;100958.00;;;;5011943;28;20616;-43
2022/08/12 11:56:38;;;;;;;2.88;2.60;;;28.80;40.30;29.40;100960.00;;;;5012486;28;20194;-43
2022/08/12 11:59:04;;;;;;;3.33;2.55;;;28.90;40.40;29.40;100965.00;;;;5012748;28;20226;-43
2022/08/12 12:01:29;;;;;;;2.65;2.45;;;28.90;40.40;29.40;100941.00;;;;5011573;28;20226;-43
2022/08/12 12:03:55;;;;;;;3.20;2.75;;;28.90;40.00;29.50;100958.00;;;;5026852;28;20610;-42
2022/08/12 12:06:21;;;;;;;4.07;2.40;;;29.00;40.20;29.50;100951.00;;;;5012012;28;20801;-44
2022/08/12 12:08:47;;;;;;;3.00;2.60;;;28.90;40.20;29.50;100946.00;;;;5011142;28;20740;-44
2022/08/12 12:11:13;;;;;;;3.08;2.50;;;29.00;40.30;29.60;100954.00;;;;5011290;28;20176;-44
2022/08/12 12:13:39;;;;;;;4.72;2.75;;;29.00;40.20;29.60;100951.00;;;;5010040;28;20206;-44
2022/08/12 12:16:05;;;;;;;3.13;2.50;;;29.00;40.50;29.60;100971.00;;;;5011503;28;20199;-43
2022/08/12 12:18:32;;;;;;;4.20;2.42;;;29.00;40.60;29.70;100942.00;;;;5011241;28;20176;-44
2022/08/12 12:21:00;;;;;;;2.85;2.60;;;29.10;40.70;29.70;100950.00;;;;5011196;28;20164;-44
2022/08/12 12:23:25;;;;;;;3.97;2.45;;;29.10;40.60;29.70;100946.00;;;;5011496;28;20179;-44
2022/08/12 12:25:51;;;;;;;3.13;2.47;;;29.20;40.60;29.70;100938.00;;;;5011653;28;20186;-44
2022/08/12 12:28:17;;;;;;;3.08;2.30;;;29.20;40.60;29.80;100939.00;;;;5026952;28;20176;-43
2022/08/12 12:30:43;;;;;;;2.70;2.50;;;29.30;40.60;29.80;100933.00;;;;5011132;28;20278;-44
2022/08/12 12:33:10;;;;;;;5.25;2.40;;;29.20;40.50;29.80;100941.00;;;;5011308;28;20255;-44
2022/08/12 12:35:37;;;;;;;2.50;2.30;;;29.30;40.50;29.90;100926.00;;;;5010895;28;20199;-44
2022/08/12 12:38:07;;;;;;;2.85;2.35;;;29.30;40.50;29.90;100926.00;;;;5010867;28;20191;-44
2022/08/12 12:40:34;;;;;;;2.60;2.40;;;29.30;40.50;29.90;100922.00;;;;5010768;28;20198;-44